createdAt,value
2018-12-20T00:01:29.182Z,13.50
2018-12-20T00:03:58.162Z,11.80
2018-12-20T00:06:26.989Z,11.80
2018-12-20T00:08:55.861Z,11.73
2018-12-20T00:11:24.675Z,12.07
2018-12-20T00:13:53.499Z,11.50
2018-12-20T00:16:22.534Z,11.17
2018-12-20T00:18:51.461Z,10.93
2018-12-20T00:21:26.477Z,11.43
2018-12-20T00:23:55.421Z,11.47
2018-12-20T00:26:24.273Z,11.47
2018-12-20T00:28:53.088Z,11.90
2018-12-20T00:31:21.956Z,11.43
2018-12-20T00:33:50.879Z,10.73
2018-12-20T00:36:19.756Z,12.67
2018-12-20T00:38:48.682Z,10.73
2018-12-20T00:41:17.520Z,11.33
2018-12-20T00:43:47.686Z,11.93
2018-12-20T00:46:16.623Z,11.00
2018-12-20T00:48:45.590Z,12.57
2018-12-20T00:51:14.546Z,11.40
2018-12-20T00:53:43.418Z,11.73
2018-12-20T00:56:12.251Z,11.37
2018-12-20T00:58:42.403Z,12.30
2018-12-20T01:01:11.310Z,11.33
2018-12-20T01:03:40.324Z,11.80
2018-12-20T01:06:09.233Z,11.03
2018-12-20T01:08:38.074Z,11.03
2018-12-20T01:11:07.633Z,10.30
2018-12-20T01:13:36.580Z,11.87
2018-12-20T01:16:05.639Z,11.47
2018-12-20T01:18:34.603Z,11.23
2018-12-20T01:21:03.586Z,11.47
2018-12-20T01:23:32.451Z,11.17
2018-12-20T01:26:01.262Z,12.30
2018-12-20T01:28:30.190Z,11.73
2018-12-20T01:30:59.227Z,11.33
2018-12-20T01:33:28.287Z,12.00
2018-12-20T01:35:57.278Z,11.30
2018-12-20T01:38:26.273Z,11.33
2018-12-20T01:40:55.620Z,11.60
2018-12-20T01:43:24.649Z,11.63
2018-12-20T01:45:53.631Z,10.70
2018-12-20T01:48:22.597Z,9.80
2018-12-20T01:50:51.709Z,10.47
2018-12-20T01:53:20.573Z,10.53
2018-12-20T01:55:49.481Z,11.13
2018-12-20T01:58:18.491Z,11.20
2018-12-20T02:00:47.479Z,10.03
2018-12-20T02:03:16.606Z,10.77
2018-12-20T02:05:45.532Z,11.73
2018-12-20T02:08:14.361Z,11.00
2018-12-20T02:10:43.183Z,11.43
2018-12-20T02:13:12.174Z,11.23
2018-12-20T02:15:41.344Z,11.70
2018-12-20T02:18:10.612Z,12.23
2018-12-20T02:20:39.573Z,13.33
2018-12-20T02:23:08.594Z,12.10
2018-12-20T02:25:37.588Z,11.97
2018-12-20T02:28:06.499Z,12.93
2018-12-20T02:30:35.683Z,12.73
2018-12-20T02:33:04.917Z,12.10
2018-12-20T02:35:33.886Z,11.73
2018-12-20T02:38:02.916Z,9.90
2018-12-20T02:40:31.909Z,11.40
2018-12-20T02:43:01.013Z,12.47
2018-12-20T02:45:30.187Z,12.60
2018-12-20T02:47:59.397Z,12.83
2018-12-20T02:50:28.551Z,12.73
2018-12-20T02:52:57.653Z,11.20
2018-12-20T02:55:26.776Z,10.77
2018-12-20T02:57:55.943Z,10.80
2018-12-20T03:00:25.025Z,12.13
2018-12-20T03:02:53.910Z,12.83
2018-12-20T03:05:23.242Z,12.53
2018-12-20T03:07:52.392Z,12.53
2018-12-20T03:10:21.226Z,11.13
2018-12-20T03:12:50.258Z,11.60
2018-12-20T03:15:20.110Z,11.37
2018-12-20T03:17:49.833Z,12.93
2018-12-20T03:20:18.890Z,12.43
2018-12-20T03:22:47.835Z,13.20
2018-12-20T03:25:16.734Z,12.37
2018-12-20T03:27:45.635Z,12.40
2018-12-20T03:30:14.578Z,12.90
2018-12-20T03:32:43.766Z,13.50
2018-12-20T03:35:14.309Z,12.83
2018-12-20T03:37:43.942Z,12.00
2018-12-20T03:40:13.185Z,13.33
2018-12-20T03:42:42.305Z,14.07
2018-12-20T03:45:13.155Z,13.00
2018-12-20T03:47:42.485Z,12.23
2018-12-20T03:50:11.924Z,12.80
2018-12-20T03:52:41.111Z,11.50
2018-12-20T03:55:09.959Z,11.93
2018-12-20T03:57:38.999Z,12.47
2018-12-20T04:00:08.409Z,12.70
2018-12-20T04:02:37.614Z,12.03
2018-12-20T04:05:07.018Z,11.50
2018-12-20T04:07:36.190Z,11.97
2018-12-20T04:10:05.582Z,12.70
2018-12-20T04:12:34.753Z,13.23
2018-12-20T04:15:03.953Z,13.20
2018-12-20T04:17:33.047Z,11.97
2018-12-20T04:20:01.975Z,13.47
2018-12-20T04:22:30.965Z,12.90
2018-12-20T04:25:00.267Z,13.20
2018-12-20T04:27:29.155Z,12.40
2018-12-20T04:29:58.051Z,12.80
2018-12-20T04:32:27.004Z,12.03
2018-12-20T04:34:56.210Z,11.87
2018-12-20T04:37:25.076Z,12.80
2018-12-20T04:39:54.069Z,12.77
2018-12-20T04:42:23.318Z,11.63
2018-12-20T04:44:52.603Z,12.67
2018-12-20T04:47:21.894Z,13.60
2018-12-20T04:49:50.844Z,13.30
2018-12-20T04:52:19.730Z,12.30
2018-12-20T04:54:48.898Z,13.27
2018-12-20T04:57:18.057Z,13.23
2018-12-20T04:59:47.205Z,12.67
2018-12-20T05:02:16.402Z,13.03
2018-12-20T05:04:45.481Z,14.03
2018-12-20T05:07:14.328Z,15.13
2018-12-20T05:09:43.158Z,14.10
2018-12-20T05:12:12.034Z,14.97
2018-12-20T05:14:40.956Z,12.50
2018-12-20T05:17:09.771Z,12.97
2018-12-20T05:19:38.641Z,13.70
2018-12-20T05:22:07.476Z,13.53
2018-12-20T05:24:36.491Z,13.37
2018-12-20T05:27:05.444Z,12.30
2018-12-20T05:29:34.632Z,12.57
2018-12-20T05:32:03.653Z,13.03
2018-12-20T05:34:32.520Z,12.57
2018-12-20T05:37:01.583Z,13.50
2018-12-20T05:39:30.747Z,14.40
2018-12-20T05:41:59.663Z,12.77
2018-12-20T05:44:28.757Z,12.87
2018-12-20T05:46:58.001Z,12.53
2018-12-20T05:49:26.825Z,14.03
2018-12-20T05:51:55.644Z,13.13
2018-12-20T05:54:24.507Z,13.80
2018-12-20T05:56:53.675Z,13.50
2018-12-20T05:59:22.745Z,12.70
2018-12-20T06:01:51.608Z,14.60
2018-12-20T06:04:20.560Z,14.83
2018-12-20T06:06:49.630Z,17.07
2018-12-20T06:09:18.481Z,18.13
2018-12-20T06:11:47.275Z,18.67
2018-12-20T06:14:16.374Z,14.93
2018-12-20T06:16:45.850Z,15.50
2018-12-20T06:19:14.730Z,16.20
2018-12-20T06:21:43.569Z,16.17
2018-12-20T06:24:12.457Z,11.00
2018-12-20T06:26:41.352Z,14.10
2018-12-20T06:29:10.133Z,16.23
2018-12-20T06:31:38.954Z,13.90
2018-12-20T06:34:07.808Z,15.30
2018-12-20T06:36:36.626Z,13.07
2018-12-20T06:39:08.569Z,11.83
2018-12-20T06:41:37.432Z,14.63
2018-12-20T06:44:07.262Z,11.43
2018-12-20T06:46:38.828Z,12.77
2018-12-20T06:49:07.644Z,13.53
2018-12-20T06:51:36.576Z,12.43
2018-12-20T06:54:05.391Z,13.07
2018-12-20T06:56:34.221Z,13.87
2018-12-20T06:59:03.061Z,12.90
2018-12-20T07:01:31.856Z,13.30
2018-12-20T07:04:00.691Z,12.33
2018-12-20T07:06:29.547Z,13.13
2018-12-20T07:08:58.353Z,12.40
2018-12-20T07:11:27.170Z,13.73
2018-12-20T07:13:56.004Z,13.70
2018-12-20T07:16:29.307Z,16.93
2018-12-20T07:18:55.716Z,18.23
2018-12-20T07:21:24.585Z,15.13
2018-12-20T07:23:53.381Z,17.33
2018-12-20T07:26:22.189Z,14.20
2018-12-20T07:28:51.042Z,16.80
2018-12-20T07:31:19.841Z,13.73
2018-12-20T07:33:48.628Z,14.97
2018-12-20T07:36:17.485Z,14.50
2018-12-20T07:38:46.308Z,14.50
2018-12-20T07:41:15.748Z,14.00
2018-12-20T07:43:44.555Z,14.93
2018-12-20T07:46:13.582Z,14.77
2018-12-20T07:48:42.440Z,14.70
2018-12-20T07:51:11.261Z,13.77
2018-12-20T07:53:40.104Z,16.30
2018-12-20T07:56:09.187Z,15.27
2018-12-20T07:58:38.060Z,15.60
2018-12-20T08:01:06.906Z,17.70
2018-12-20T08:03:35.884Z,17.67
2018-12-20T08:06:04.864Z,16.07
2018-12-20T08:08:33.698Z,16.77
2018-12-20T08:11:02.631Z,14.00
2018-12-20T08:13:31.430Z,13.27
2018-12-20T08:16:00.231Z,14.00
2018-12-20T08:18:29.061Z,15.43
2018-12-20T08:20:57.864Z,14.50
2018-12-20T08:23:26.653Z,13.70
2018-12-20T08:25:56.834Z,13.43
2018-12-20T08:28:25.652Z,13.87
2018-12-20T08:30:54.469Z,15.13
2018-12-20T08:33:23.333Z,14.90
2018-12-20T08:35:52.145Z,14.00
2018-12-20T08:38:21.006Z,14.13
2018-12-20T08:40:51.202Z,13.30
2018-12-20T08:43:19.985Z,12.13
2018-12-20T08:45:48.969Z,12.53
2018-12-20T08:48:17.813Z,13.37
2018-12-20T08:50:46.617Z,13.43
2018-12-20T08:53:17.053Z,13.20
2018-12-20T08:55:45.859Z,13.03
2018-12-20T08:58:14.683Z,12.47
2018-12-20T09:00:43.593Z,13.03
2018-12-20T09:03:12.462Z,13.97
2018-12-20T09:05:41.336Z,13.20
2018-12-20T09:08:10.232Z,12.23
2018-12-20T09:10:39.084Z,12.10
2018-12-20T09:13:09.657Z,14.20
2018-12-20T09:15:40.037Z,12.60
2018-12-20T09:18:08.841Z,12.53
2018-12-20T09:20:37.658Z,13.60
2018-12-20T09:23:06.776Z,14.27
2018-12-20T09:25:35.588Z,13.53
2018-12-20T09:28:04.393Z,13.07
2018-12-20T09:30:34.580Z,12.97
2018-12-20T09:33:04.169Z,13.40
2018-12-20T09:35:33.012Z,14.40
2018-12-20T09:38:01.854Z,13.23
2018-12-20T09:40:30.758Z,11.60
2018-12-20T09:42:59.594Z,13.50
2018-12-20T09:45:28.460Z,13.07
2018-12-20T09:48:02.603Z,13.70
2018-12-20T09:50:31.593Z,13.83
2018-12-20T09:53:00.397Z,14.43
2018-12-20T09:55:29.197Z,11.40
2018-12-20T09:57:58.121Z,12.70
2018-12-20T10:00:26.932Z,13.67
2018-12-20T10:02:55.928Z,14.87
2018-12-20T10:05:24.833Z,12.83
2018-12-20T10:07:53.643Z,13.07
2018-12-20T10:10:22.510Z,12.90
2018-12-20T10:12:51.420Z,11.07
2018-12-20T10:15:20.303Z,13.37
2018-12-20T10:17:49.161Z,11.40
2018-12-20T10:20:17.975Z,11.97
2018-12-20T10:22:46.780Z,11.90
2018-12-20T10:25:15.785Z,12.90
2018-12-20T10:27:44.590Z,12.87
2018-12-20T10:30:13.574Z,12.93
2018-12-20T10:32:42.399Z,13.17
2018-12-20T10:35:11.277Z,13.57
2018-12-20T10:37:40.117Z,13.53
2018-12-20T10:40:08.960Z,13.83
2018-12-20T10:42:37.778Z,17.00
2018-12-20T10:45:07.446Z,19.70
2018-12-20T10:47:36.237Z,17.47
2018-12-20T10:50:05.987Z,17.67
2018-12-20T10:52:34.795Z,17.67
2018-12-20T10:55:03.782Z,17.13
2018-12-20T10:57:32.588Z,15.70
2018-12-20T11:00:01.419Z,15.90
2018-12-20T11:02:35.548Z,16.57
2018-12-20T11:05:10.292Z,16.63
2018-12-20T11:07:44.189Z,17.73
2018-12-20T11:10:18.127Z,17.30
2018-12-20T11:12:49.153Z,18.00
2018-12-20T11:15:18.275Z,16.13
2018-12-20T11:17:47.077Z,19.17
2018-12-20T11:20:17.186Z,12.73
2018-12-20T11:22:45.999Z,12.80
2018-12-20T11:25:14.822Z,12.30
2018-12-20T11:27:43.664Z,13.87
2018-12-20T11:30:12.541Z,14.40
2018-12-20T11:32:42.681Z,16.10
2018-12-20T11:35:11.682Z,14.90
2018-12-20T11:37:40.608Z,14.30
2018-12-20T11:40:10.295Z,14.07
2018-12-20T11:42:39.152Z,15.93
2018-12-20T11:45:08.277Z,14.07
2018-12-20T11:47:45.719Z,17.27
2018-12-20T11:50:08.719Z,13.57
2018-12-20T11:52:42.359Z,15.40
2018-12-20T11:55:08.548Z,12.57
2018-12-20T11:57:37.391Z,12.50
2018-12-20T12:00:09.745Z,12.93
2018-12-20T12:02:38.592Z,14.67
2018-12-20T12:05:09.077Z,13.10
2018-12-20T12:07:37.927Z,13.00
2018-12-20T12:10:07.552Z,13.83
2018-12-20T12:12:36.360Z,13.50
2018-12-20T12:15:07.186Z,14.80
2018-12-20T12:17:36.030Z,14.20
2018-12-20T12:20:05.076Z,14.30
2018-12-20T12:22:33.893Z,17.30
2018-12-20T12:25:02.727Z,15.17
2018-12-20T12:27:31.526Z,14.20
2018-12-20T12:30:00.370Z,15.77
2018-12-20T12:32:29.216Z,16.37
2018-12-20T12:34:58.029Z,18.47
2018-12-20T12:37:26.845Z,19.57
2018-12-20T12:39:55.782Z,18.40
2018-12-20T12:42:24.574Z,17.93
2018-12-20T12:44:53.385Z,16.67
2018-12-20T12:47:26.328Z,18.70
2018-12-20T12:49:55.126Z,18.75
2018-12-20T12:52:23.924Z,15.60
2018-12-20T12:54:54.167Z,14.93
2018-12-20T12:57:22.999Z,15.67
2018-12-20T12:59:51.813Z,13.13
2018-12-20T13:02:20.664Z,14.70
2018-12-20T13:04:49.457Z,14.53
2018-12-20T13:07:18.283Z,14.73
2018-12-20T13:09:47.129Z,14.77
2018-12-20T13:12:15.927Z,15.17
2018-12-20T13:14:44.742Z,15.17
2018-12-20T13:17:13.969Z,16.10
2018-12-20T13:19:42.798Z,18.87
2018-12-20T13:22:11.693Z,21.20
2018-12-20T13:24:40.704Z,24.10
2018-12-20T13:27:09.552Z,27.33
2018-12-20T13:29:38.408Z,26.57
2018-12-20T13:32:07.300Z,26.73
2018-12-20T13:34:36.141Z,25.53
2018-12-20T13:37:05.019Z,27.70
2018-12-20T13:39:33.809Z,17.40
2018-12-20T13:42:03.816Z,17.73
2018-12-20T13:44:34.274Z,15.07
2018-12-20T13:47:03.182Z,16.30
2018-12-20T13:49:31.985Z,17.67
2018-12-20T13:52:00.804Z,17.57
2018-12-20T13:54:29.706Z,19.17
2018-12-20T13:56:58.538Z,21.17
2018-12-20T13:59:28.653Z,17.97
2018-12-20T14:01:57.496Z,18.30
2018-12-20T14:04:26.333Z,19.03
2018-12-20T14:06:55.252Z,18.13
2018-12-20T14:09:24.172Z,19.77
2018-12-20T14:11:52.986Z,19.33
2018-12-20T14:14:21.806Z,19.60
2018-12-20T14:16:50.673Z,18.37
2018-12-20T14:19:19.533Z,21.27
2018-12-20T14:21:48.329Z,22.50
2018-12-20T14:24:17.213Z,21.70
2018-12-20T14:26:46.052Z,21.30
2018-12-20T14:29:14.863Z,21.40
2018-12-20T14:31:43.674Z,21.90
2018-12-20T14:34:12.526Z,22.13
2018-12-20T14:36:41.494Z,22.47
2018-12-20T14:39:10.323Z,22.93
2018-12-20T14:41:39.213Z,23.80
2018-12-20T14:44:08.083Z,22.40
2018-12-20T14:46:36.880Z,21.67
2018-12-20T14:49:05.973Z,21.47
2018-12-20T14:51:35.513Z,21.73
2018-12-20T14:54:04.353Z,22.37
2018-12-20T14:56:34.482Z,21.50
2018-12-20T14:59:03.414Z,22.37
2018-12-20T15:01:32.220Z,21.73
2018-12-20T15:04:01.081Z,22.33
2018-12-20T15:06:29.881Z,26.30
2018-12-20T15:08:58.688Z,23.20
2018-12-20T15:11:27.572Z,22.93
2018-12-20T15:13:56.383Z,19.13
2018-12-20T15:16:25.230Z,19.07
2018-12-20T15:18:54.133Z,19.33
2018-12-20T15:21:22.940Z,20.40
2018-12-20T15:23:51.805Z,20.27
2018-12-20T15:26:20.726Z,21.17
2018-12-20T15:28:49.530Z,20.67
2018-12-20T15:31:18.396Z,21.33
2018-12-20T15:33:47.180Z,23.97
2018-12-20T15:36:15.991Z,23.07
2018-12-20T15:38:44.972Z,24.27
2018-12-20T15:41:13.854Z,22.23
2018-12-20T15:43:42.757Z,23.53
2018-12-20T15:46:13.094Z,22.40
2018-12-20T15:48:41.890Z,22.23
2018-12-20T15:51:11.009Z,22.03
2018-12-20T15:53:39.912Z,22.50
2018-12-20T15:56:08.829Z,21.00
2018-12-20T15:58:38.497Z,22.23
2018-12-20T16:01:08.687Z,18.13
2018-12-20T16:03:37.571Z,21.37
2018-12-20T16:06:06.382Z,20.47
2018-12-20T16:08:35.245Z,24.73
2018-12-20T16:11:04.210Z,25.97
2018-12-20T16:13:33.038Z,26.17
2018-12-20T16:16:01.897Z,23.37
2018-12-20T16:18:30.735Z,23.47
2018-12-20T16:20:59.619Z,22.03
2018-12-20T16:23:28.459Z,21.60
2018-12-20T16:25:57.418Z,21.87
2018-12-20T16:28:26.304Z,24.17
2018-12-20T16:30:55.181Z,22.43
2018-12-20T16:33:23.989Z,22.37
2018-12-20T16:35:52.838Z,20.93
2018-12-20T16:38:23.110Z,21.10
2018-12-20T16:40:52.163Z,20.67
2018-12-20T16:43:20.993Z,20.17
2018-12-20T16:45:50.047Z,16.20
2018-12-20T16:48:24.867Z,20.33
2018-12-20T16:50:55.797Z,20.57
2018-12-20T16:53:24.826Z,21.07
2018-12-20T16:55:53.663Z,21.00
2018-12-20T16:58:22.526Z,18.40
2018-12-20T17:00:51.405Z,21.60
2018-12-20T17:03:20.405Z,22.40
2018-12-20T17:05:49.215Z,21.53
2018-12-20T17:08:20.041Z,19.50
2018-12-20T17:10:48.844Z,19.07
2018-12-20T17:13:17.698Z,20.30
2018-12-20T17:15:46.953Z,20.07
2018-12-20T17:18:15.802Z,19.93
2018-12-20T17:20:46.025Z,20.77
2018-12-20T17:23:14.892Z,18.57
2018-12-20T17:25:43.724Z,19.57
2018-12-20T17:28:13.809Z,19.50
2018-12-20T17:30:42.608Z,19.67
2018-12-20T17:33:11.405Z,18.80
2018-12-20T17:35:40.365Z,17.73
2018-12-20T17:38:09.164Z,17.90
2018-12-20T17:40:38.137Z,24.20
2018-12-20T17:43:07.027Z,23.90
2018-12-20T17:45:36.912Z,22.70
2018-12-20T17:48:05.992Z,25.10
2018-12-20T17:50:34.829Z,24.23
2018-12-20T17:53:03.661Z,28.23
2018-12-20T17:55:32.503Z,29.77
2018-12-20T17:58:01.394Z,31.13
2018-12-20T18:00:31.473Z,31.93
2018-12-20T18:03:00.289Z,34.67
2018-12-20T18:05:29.222Z,31.53
2018-12-20T18:07:58.021Z,32.70
2018-12-20T18:10:26.844Z,31.27
2018-12-20T18:12:55.735Z,33.97
2018-12-20T18:15:24.576Z,32.37
2018-12-20T18:17:53.437Z,32.43
2018-12-20T18:20:22.270Z,31.40
2018-12-20T18:22:51.109Z,29.10
2018-12-20T18:25:19.970Z,32.37
2018-12-20T18:27:48.872Z,31.40
2018-12-20T18:30:17.698Z,30.33
2018-12-20T18:32:46.517Z,29.80
2018-12-20T18:35:15.392Z,26.33
2018-12-20T18:37:44.418Z,30.07
2018-12-20T18:40:13.247Z,27.23
2018-12-20T18:42:42.090Z,24.83
2018-12-20T18:45:12.622Z,25.07
2018-12-20T18:47:41.440Z,25.63
2018-12-20T18:50:11.321Z,25.90
2018-12-20T18:52:40.207Z,29.17
2018-12-20T18:55:09.033Z,25.30
2018-12-20T18:57:37.870Z,25.93
2018-12-20T19:00:09.025Z,28.60
2018-12-20T19:02:37.966Z,31.77
2018-12-20T19:05:08.193Z,30.13
2018-12-20T19:07:37.057Z,33.00
2018-12-20T19:10:07.359Z,37.13
2018-12-20T19:12:36.187Z,33.93
2018-12-20T19:15:06.089Z,37.87
2018-12-20T19:17:34.980Z,36.87
2018-12-20T19:20:03.974Z,37.80
2018-12-20T19:22:32.917Z,48.83
2018-12-20T19:25:01.836Z,32.40
2018-12-20T19:27:30.725Z,30.87
2018-12-20T19:29:59.672Z,29.10
2018-12-20T19:32:28.473Z,29.67
2018-12-20T19:34:57.295Z,30.40
2018-12-20T19:37:26.167Z,28.67
2018-12-20T19:40:00.414Z,26.23
2018-12-20T19:42:29.242Z,27.93
2018-12-20T19:44:58.183Z,28.37
2018-12-20T19:47:27.092Z,28.70
2018-12-20T19:50:04.588Z,27.03
2018-12-20T19:52:27.365Z,26.53
2018-12-20T19:54:57.553Z,28.20
2018-12-20T19:57:26.371Z,26.23
2018-12-20T19:59:55.268Z,25.47
2018-12-20T20:02:24.105Z,27.33
2018-12-20T20:04:52.918Z,25.23
2018-12-20T20:07:23.884Z,26.80
2018-12-20T20:09:52.590Z,25.57
2018-12-20T20:12:21.447Z,23.10
2018-12-20T20:14:50.327Z,22.33
2018-12-20T20:17:19.192Z,21.03
2018-12-20T20:19:48.006Z,21.70
2018-12-20T20:22:16.810Z,20.30
2018-12-20T20:24:45.653Z,19.47
2018-12-20T20:27:14.600Z,19.37
2018-12-20T20:29:43.489Z,20.03
2018-12-20T20:32:12.396Z,19.23
2018-12-20T20:34:41.208Z,20.20
2018-12-20T20:37:10.093Z,19.07
2018-12-20T20:39:38.900Z,20.13
2018-12-20T20:42:07.785Z,20.43
2018-12-20T20:44:36.590Z,21.23
2018-12-20T20:47:05.495Z,20.23
2018-12-20T20:49:34.289Z,22.23
2018-12-20T20:52:03.564Z,23.47
2018-12-20T20:54:32.511Z,23.53
2018-12-20T20:57:01.311Z,21.63
2018-12-20T20:59:30.125Z,23.73
2018-12-20T21:02:00.338Z,23.37
2018-12-20T21:04:29.264Z,22.17
2018-12-20T21:06:58.154Z,22.37
2018-12-20T21:09:28.199Z,23.13
2018-12-20T21:11:57.080Z,21.53
2018-12-20T21:14:25.892Z,21.47
2018-12-20T21:16:54.737Z,19.63
2018-12-20T21:19:23.561Z,20.47
2018-12-20T21:21:52.388Z,22.20
2018-12-20T21:24:21.293Z,19.33
2018-12-20T21:26:50.375Z,18.33
2018-12-20T21:29:19.217Z,18.80
2018-12-20T21:31:48.182Z,17.67
2018-12-20T21:34:19.039Z,17.90
2018-12-20T21:36:47.857Z,19.80
2018-12-20T21:39:16.711Z,20.43
2018-12-20T21:41:45.515Z,23.37
2018-12-20T21:44:14.843Z,23.27
2018-12-20T21:46:43.730Z,23.00
2018-12-20T21:49:14.006Z,23.00
2018-12-20T21:51:42.815Z,23.10
2018-12-20T21:54:11.657Z,21.53
2018-12-20T21:56:40.512Z,23.17
2018-12-20T21:59:09.382Z,22.73
2018-12-20T22:01:38.242Z,22.97
2018-12-20T22:04:07.093Z,22.43
2018-12-20T22:06:35.901Z,22.00
2018-12-20T22:09:06.994Z,23.40
2018-12-20T22:11:37.908Z,24.67
2018-12-20T22:14:06.732Z,22.03
2018-12-20T22:16:35.581Z,23.40
2018-12-20T22:19:04.395Z,22.20
2018-12-20T22:21:33.237Z,22.93
2018-12-20T22:24:02.067Z,23.73
2018-12-20T22:26:30.925Z,23.10
2018-12-20T22:29:00.473Z,23.87
2018-12-20T22:31:29.303Z,23.90
2018-12-20T22:33:58.133Z,22.73
2018-12-20T22:36:27.169Z,24.23
2018-12-20T22:38:56.048Z,25.90
2018-12-20T22:41:24.883Z,24.83
2018-12-20T22:43:53.914Z,26.67
2018-12-20T22:46:22.745Z,25.40
2018-12-20T22:48:51.557Z,23.97
2018-12-20T22:51:21.096Z,23.50
2018-12-20T22:53:50.039Z,24.40
2018-12-20T22:56:18.850Z,24.70
2018-12-20T22:58:47.712Z,25.73
2018-12-20T23:01:16.694Z,25.63
2018-12-20T23:03:45.660Z,24.93
2018-12-20T23:06:14.567Z,26.27
2018-12-20T23:08:43.460Z,24.43
2018-12-20T23:11:12.277Z,25.50
2018-12-20T23:13:41.140Z,24.87
2018-12-20T23:16:09.973Z,26.07
2018-12-20T23:18:38.804Z,27.30
2018-12-20T23:21:08.020Z,28.80
2018-12-20T23:23:36.850Z,28.37
2018-12-20T23:26:05.738Z,27.90
2018-12-20T23:28:34.644Z,29.07
2018-12-20T23:31:03.503Z,28.83
2018-12-20T23:33:32.317Z,29.27
2018-12-20T23:36:01.187Z,27.93
2018-12-20T23:38:30.106Z,29.87
2018-12-20T23:40:58.928Z,28.43
2018-12-20T23:43:27.851Z,28.77
2018-12-20T23:45:56.779Z,30.80
2018-12-20T23:48:25.765Z,28.73
2018-12-20T23:50:54.744Z,28.17
2018-12-20T23:53:23.772Z,30.10
2018-12-20T23:55:52.660Z,27.10
2018-12-20T23:58:21.501Z,25.80
